sensor_id;sensor_type;location;lat;lon;timestamp;temperature;humidity
2851;DHT22;1433;49.976;8.342;2022-12-07T00:01:30;4.10;99.90
2851;DHT22;1433;49.976;8.342;2022-12-07T00:04:00;4.10;99.90
2851;DHT22;1433;49.976;8.342;2022-12-07T00:06:37;4.10;99.90
2851;DHT22;1433;49.976;8.342;2022-12-07T00:09:08;4.10;99.90
2851;DHT22;1433;49.976;8.342;2022-12-07T00:11:37;4.10;99.90
2851;DHT22;1433;49.976;8.342;2022-12-07T00:14:07;4.10;99.90
2851;DHT22;1433;49.976;8.342;2022-12-07T00:16:36;4.10;99.90
2851;DHT22;1433;49.976;8.342;2022-12-07T00:19:03;4.10;99.90
2851;DHT22;1433;49.976;8.342;2022-12-07T00:21:34;4.00;99.90
2851;DHT22;1433;49.976;8.342;2022-12-07T00:24:02;4.00;99.90
2851;DHT22;1433;49.976;8.342;2022-12-07T00:26:32;4.00;99.90
2851;DHT22;1433;49.976;8.342;2022-12-07T00:29:07;4.10;99.90
2851;DHT22;1433;49.976;8.342;2022-12-07T00:31:34;4.00;99.90
2851;DHT22;1433;49.976;8.342;2022-12-07T00:34:03;4.00;99.90
2851;DHT22;1433;49.976;8.342;2022-12-07T00:36:29;4.00;99.90
2851;DHT22;1433;49.976;8.342;2022-12-07T00:38:58;4.00;99.90
2851;DHT22;1433;49.976;8.342;2022-12-07T00:41:26;4.00;99.90
2851;DHT22;1433;49.976;8.342;2022-12-07T00:43:53;4.00;99.90
2851;DHT22;1433;49.976;8.342;2022-12-07T00:46:21;4.00;99.90
2851;DHT22;1433;49.976;8.342;2022-12-07T00:48:48;4.00;99.90
2851;DHT22;1433;49.976;8.342;2022-12-07T00:51:16;4.00;99.90
2851;DHT22;1433;49.976;8.342;2022-12-07T00:53:44;3.90;99.90
2851;DHT22;1433;49.976;8.342;2022-12-07T00:56:14;3.90;99.90
2851;DHT22;1433;49.976;8.342;2022-12-07T00:58:42;3.90;99.90
2851;DHT22;1433;49.976;8.342;2022-12-07T01:01:09;3.80;99.90
2851;DHT22;1433;49.976;8.342;2022-12-07T01:03:37;3.80;99.90
2851;DHT22;1433;49.976;8.342;2022-12-07T01:06:04;3.70;99.90
2851;DHT22;1433;49.976;8.342;2022-12-07T01:08:31;3.50;99.90
2851;DHT22;1433;49.976;8.342;2022-12-07T01:11:00;3.50;99.90
2851;DHT22;1433;49.976;8.342;2022-12-07T01:13:32;3.40;99.90
2851;DHT22;1433;49.976;8.342;2022-12-07T01:16:03;3.40;99.90
2851;DHT22;1433;49.976;8.342;2022-12-07T01:18:33;3.40;99.90
2851;DHT22;1433;49.976;8.342;2022-12-07T01:21:03;3.50;99.90
2851;DHT22;1433;49.976;8.342;2022-12-07T01:23:35;3.50;99.90
2851;DHT22;1433;49.976;8.342;2022-12-07T01:26:05;3.50;99.90
2851;DHT22;1433;49.976;8.342;2022-12-07T01:28:33;3.50;99.90
2851;DHT22;1433;49.976;8.342;2022-12-07T01:31:10;3.60;99.90
2851;DHT22;1433;49.976;8.342;2022-12-07T01:33:45;3.60;99.90
2851;DHT22;1433;49.976;8.342;2022-12-07T01:38:50;3.70;99.90
2851;DHT22;1433;49.976;8.342;2022-12-07T01:41:19;3.70;99.90
2851;DHT22;1433;49.976;8.342;2022-12-07T01:46:54;3.80;99.90
2851;DHT22;1433;49.976;8.342;2022-12-07T01:49:33;3.80;99.90
2851;DHT22;1433;49.976;8.342;2022-12-07T01:52:14;3.70;99.90
2851;DHT22;1433;49.976;8.342;2022-12-07T01:54:44;3.80;99.90
2851;DHT22;1433;49.976;8.342;2022-12-07T01:57:14;3.80;99.90
2851;DHT22;1433;49.976;8.342;2022-12-07T01:59:43;3.80;99.90
2851;DHT22;1433;49.976;8.342;2022-12-07T02:02:14;3.80;99.90
2851;DHT22;1433;49.976;8.342;2022-12-07T02:04:42;3.80;99.90
2851;DHT22;1433;49.976;8.342;2022-12-07T02:07:09;3.80;99.90
2851;DHT22;1433;49.976;8.342;2022-12-07T02:09:35;3.80;99.90
2851;DHT22;1433;49.976;8.342;2022-12-07T02:12:02;3.80;99.90
2851;DHT22;1433;49.976;8.342;2022-12-07T02:14:28;3.80;99.90
2851;DHT22;1433;49.976;8.342;2022-12-07T02:20:21;3.80;99.90
2851;DHT22;1433;49.976;8.342;2022-12-07T02:23:18;3.80;99.90
2851;DHT22;1433;49.976;8.342;2022-12-07T02:31:46;3.60;99.90
2851;DHT22;1433;49.976;8.342;2022-12-07T02:34:26;3.50;99.90
2851;DHT22;1433;49.976;8.342;2022-12-07T02:36:57;3.50;99.90
2851;DHT22;1433;49.976;8.342;2022-12-07T02:39:30;3.50;99.90
2851;DHT22;1433;49.976;8.342;2022-12-07T02:42:07;3.60;99.90
2851;DHT22;1433;49.976;8.342;2022-12-07T02:44:36;3.60;99.90
2851;DHT22;1433;49.976;8.342;2022-12-07T02:47:05;3.60;99.90
2851;DHT22;1433;49.976;8.342;2022-12-07T02:49:34;3.60;99.90
2851;DHT22;1433;49.976;8.342;2022-12-07T02:52:02;3.60;99.90
2851;DHT22;1433;49.976;8.342;2022-12-07T02:54:29;3.70;99.90
2851;DHT22;1433;49.976;8.342;2022-12-07T03:08:51;3.80;99.90
2851;DHT22;1433;49.976;8.342;2022-12-07T03:14:45;3.90;99.90
2851;DHT22;1433;49.976;8.342;2022-12-07T03:17:21;3.90;99.90
2851;DHT22;1433;49.976;8.342;2022-12-07T03:19:52;4.00;99.90
2851;DHT22;1433;49.976;8.342;2022-12-07T03:22:21;4.00;99.90
2851;DHT22;1433;49.976;8.342;2022-12-07T03:24:58;4.00;99.90
2851;DHT22;1433;49.976;8.342;2022-12-07T03:30:17;4.00;99.90
2851;DHT22;1433;49.976;8.342;2022-12-07T03:33:07;4.00;99.90
2851;DHT22;1433;49.976;8.342;2022-12-07T03:35:49;4.00;99.90
2851;DHT22;1433;49.976;8.342;2022-12-07T03:41:20;4.00;99.90
2851;DHT22;1433;49.976;8.342;2022-12-07T03:43:48;4.00;99.90
2851;DHT22;1433;49.976;8.342;2022-12-07T03:46:42;4.00;99.90
2851;DHT22;1433;49.976;8.342;2022-12-07T03:49:22;4.00;99.90
2851;DHT22;1433;49.976;8.342;2022-12-07T03:52:12;4.00;99.90
2851;DHT22;1433;49.976;8.342;2022-12-07T03:57:25;4.00;99.90
2851;DHT22;1433;49.976;8.342;2022-12-07T03:59:54;4.00;99.90
2851;DHT22;1433;49.976;8.342;2022-12-07T04:02:22;4.00;99.90
2851;DHT22;1433;49.976;8.342;2022-12-07T04:04:50;4.00;99.90
2851;DHT22;1433;49.976;8.342;2022-12-07T04:07:16;4.00;99.90
2851;DHT22;1433;49.976;8.342;2022-12-07T04:09:42;4.00;99.90
2851;DHT22;1433;49.976;8.342;2022-12-07T04:12:08;4.10;99.90
2851;DHT22;1433;49.976;8.342;2022-12-07T04:14:35;4.10;99.90
2851;DHT22;1433;49.976;8.342;2022-12-07T04:17:01;4.10;99.90
2851;DHT22;1433;49.976;8.342;2022-12-07T04:19:30;4.10;99.90
2851;DHT22;1433;49.976;8.342;2022-12-07T04:21:59;4.20;99.90
2851;DHT22;1433;49.976;8.342;2022-12-07T04:24:27;4.20;99.90
2851;DHT22;1433;49.976;8.342;2022-12-07T04:26:54;4.20;99.90
2851;DHT22;1433;49.976;8.342;2022-12-07T04:29:20;4.20;99.90
2851;DHT22;1433;49.976;8.342;2022-12-07T04:31:47;4.20;99.90
2851;DHT22;1433;49.976;8.342;2022-12-07T04:34:14;4.20;99.90
2851;DHT22;1433;49.976;8.342;2022-12-07T04:36:41;4.30;99.90
2851;DHT22;1433;49.976;8.342;2022-12-07T04:39:17;4.30;99.90
2851;DHT22;1433;49.976;8.342;2022-12-07T04:41:51;4.30;99.90
2851;DHT22;1433;49.976;8.342;2022-12-07T04:44:18;4.30;99.90
2851;DHT22;1433;49.976;8.342;2022-12-07T04:46:46;4.30;99.90
2851;DHT22;1433;49.976;8.342;2022-12-07T04:49:13;4.40;99.90
2851;DHT22;1433;49.976;8.342;2022-12-07T04:51:40;4.40;99.90
2851;DHT22;1433;49.976;8.342;2022-12-07T04:54:07;4.40;99.90
2851;DHT22;1433;49.976;8.342;2022-12-07T04:56:34;4.40;99.90
2851;DHT22;1433;49.976;8.342;2022-12-07T04:59:01;4.40;99.90
2851;DHT22;1433;49.976;8.342;2022-12-07T05:01:28;4.40;99.90
2851;DHT22;1433;49.976;8.342;2022-12-07T05:03:55;4.40;99.90
2851;DHT22;1433;49.976;8.342;2022-12-07T05:06:22;4.40;99.90
2851;DHT22;1433;49.976;8.342;2022-12-07T05:08:56;4.50;99.90
2851;DHT22;1433;49.976;8.342;2022-12-07T05:11:22;4.50;99.90
2851;DHT22;1433;49.976;8.342;2022-12-07T05:14:12;4.50;99.90
2851;DHT22;1433;49.976;8.342;2022-12-07T05:16:48;4.60;99.90
2851;DHT22;1433;49.976;8.342;2022-12-07T05:19:17;4.60;99.90
2851;DHT22;1433;49.976;8.342;2022-12-07T05:21:45;4.60;99.90
2851;DHT22;1433;49.976;8.342;2022-12-07T05:24:13;4.70;99.90
2851;DHT22;1433;49.976;8.342;2022-12-07T05:26:40;4.60;99.90
2851;DHT22;1433;49.976;8.342;2022-12-07T05:29:06;4.70;99.90
2851;DHT22;1433;49.976;8.342;2022-12-07T05:31:33;4.70;99.90
2851;DHT22;1433;49.976;8.342;2022-12-07T05:33:59;4.70;99.90
2851;DHT22;1433;49.976;8.342;2022-12-07T05:36:26;4.70;99.90
2851;DHT22;1433;49.976;8.342;2022-12-07T05:38:54;4.80;99.90
2851;DHT22;1433;49.976;8.342;2022-12-07T05:41:20;4.80;99.90
2851;DHT22;1433;49.976;8.342;2022-12-07T05:44:12;4.80;99.90
2851;DHT22;1433;49.976;8.342;2022-12-07T05:46:39;4.80;99.90
2851;DHT22;1433;49.976;8.342;2022-12-07T05:49:05;4.90;99.90
2851;DHT22;1433;49.976;8.342;2022-12-07T05:51:31;4.90;99.90
2851;DHT22;1433;49.976;8.342;2022-12-07T05:53:58;4.90;99.90
2851;DHT22;1433;49.976;8.342;2022-12-07T05:56:24;4.90;99.90
2851;DHT22;1433;49.976;8.342;2022-12-07T05:58:52;4.90;99.90
2851;DHT22;1433;49.976;8.342;2022-12-07T06:01:37;4.90;99.90
2851;DHT22;1433;49.976;8.342;2022-12-07T06:04:03;4.90;99.90
2851;DHT22;1433;49.976;8.342;2022-12-07T06:06:30;4.90;99.90
2851;DHT22;1433;49.976;8.342;2022-12-07T06:08:56;4.80;99.90
2851;DHT22;1433;49.976;8.342;2022-12-07T06:11:22;4.90;99.90
2851;DHT22;1433;49.976;8.342;2022-12-07T06:14:07;4.80;99.90
2851;DHT22;1433;49.976;8.342;2022-12-07T06:16:33;4.80;99.90
2851;DHT22;1433;49.976;8.342;2022-12-07T06:18:59;4.90;99.90
2851;DHT22;1433;49.976;8.342;2022-12-07T06:21:26;4.80;99.90
2851;DHT22;1433;49.976;8.342;2022-12-07T06:23:52;4.90;99.90
2851;DHT22;1433;49.976;8.342;2022-12-07T06:26:19;4.90;99.90
2851;DHT22;1433;49.976;8.342;2022-12-07T06:28:45;4.90;99.90
2851;DHT22;1433;49.976;8.342;2022-12-07T06:31:12;4.80;99.90
2851;DHT22;1433;49.976;8.342;2022-12-07T06:33:38;4.90;99.90
2851;DHT22;1433;49.976;8.342;2022-12-07T06:36:04;4.90;99.90
2851;DHT22;1433;49.976;8.342;2022-12-07T06:38:31;4.90;99.90
2851;DHT22;1433;49.976;8.342;2022-12-07T06:40:57;4.90;99.90
2851;DHT22;1433;49.976;8.342;2022-12-07T06:43:23;4.90;99.90
2851;DHT22;1433;49.976;8.342;2022-12-07T06:45:50;4.90;99.90
2851;DHT22;1433;49.976;8.342;2022-12-07T06:48:17;4.90;99.90
2851;DHT22;1433;49.976;8.342;2022-12-07T06:50:47;4.90;99.90
2851;DHT22;1433;49.976;8.342;2022-12-07T06:53:14;4.80;99.90
2851;DHT22;1433;49.976;8.342;2022-12-07T06:55:41;4.80;99.90
2851;DHT22;1433;49.976;8.342;2022-12-07T06:58:07;4.80;99.90
2851;DHT22;1433;49.976;8.342;2022-12-07T07:00:33;4.80;99.90
2851;DHT22;1433;49.976;8.342;2022-12-07T07:03:01;4.80;99.90
2851;DHT22;1433;49.976;8.342;2022-12-07T07:05:27;4.80;99.90
2851;DHT22;1433;49.976;8.342;2022-12-07T07:07:53;4.70;99.90
2851;DHT22;1433;49.976;8.342;2022-12-07T07:10:20;4.70;99.90
2851;DHT22;1433;49.976;8.342;2022-12-07T07:12:47;4.60;99.90
2851;DHT22;1433;49.976;8.342;2022-12-07T07:15:13;4.60;99.90
2851;DHT22;1433;49.976;8.342;2022-12-07T07:17:40;4.60;99.90
2851;DHT22;1433;49.976;8.342;2022-12-07T07:20:07;4.60;99.90
2851;DHT22;1433;49.976;8.342;2022-12-07T07:22:33;4.60;99.90
2851;DHT22;1433;49.976;8.342;2022-12-07T07:25:00;4.60;99.90
2851;DHT22;1433;49.976;8.342;2022-12-07T07:27:26;4.70;99.90
2851;DHT22;1433;49.976;8.342;2022-12-07T07:29:52;4.70;99.90
2851;DHT22;1433;49.976;8.342;2022-12-07T07:32:18;4.70;99.90
2851;DHT22;1433;49.976;8.342;2022-12-07T07:34:47;4.70;99.90
2851;DHT22;1433;49.976;8.342;2022-12-07T07:37:14;4.70;99.90
2851;DHT22;1433;49.976;8.342;2022-12-07T07:39:40;4.80;99.90
2851;DHT22;1433;49.976;8.342;2022-12-07T07:42:06;4.80;99.90
2851;DHT22;1433;49.976;8.342;2022-12-07T07:44:34;4.80;99.90
2851;DHT22;1433;49.976;8.342;2022-12-07T07:47:01;4.90;99.90
2851;DHT22;1433;49.976;8.342;2022-12-07T07:49:27;4.90;99.90
2851;DHT22;1433;49.976;8.342;2022-12-07T07:51:56;4.90;99.90
2851;DHT22;1433;49.976;8.342;2022-12-07T07:54:22;4.90;99.90
2851;DHT22;1433;49.976;8.342;2022-12-07T07:56:48;5.00;99.90
2851;DHT22;1433;49.976;8.342;2022-12-07T07:59:15;5.00;99.90
2851;DHT22;1433;49.976;8.342;2022-12-07T08:01:41;5.00;99.90
2851;DHT22;1433;49.976;8.342;2022-12-07T08:04:07;5.10;99.90
2851;DHT22;1433;49.976;8.342;2022-12-07T08:06:34;5.10;99.90
2851;DHT22;1433;49.976;8.342;2022-12-07T08:09:00;5.10;99.90
2851;DHT22;1433;49.976;8.342;2022-12-07T08:11:26;5.10;99.90
2851;DHT22;1433;49.976;8.342;2022-12-07T08:13:53;5.00;99.90
2851;DHT22;1433;49.976;8.342;2022-12-07T08:16:19;5.00;99.90
2851;DHT22;1433;49.976;8.342;2022-12-07T08:18:45;4.90;99.90
2851;DHT22;1433;49.976;8.342;2022-12-07T08:21:13;4.80;99.90
2851;DHT22;1433;49.976;8.342;2022-12-07T08:23:41;4.80;99.90
2851;DHT22;1433;49.976;8.342;2022-12-07T08:26:10;4.80;99.90
2851;DHT22;1433;49.976;8.342;2022-12-07T08:28:37;4.80;99.90
2851;DHT22;1433;49.976;8.342;2022-12-07T08:31:06;4.80;99.90
2851;DHT22;1433;49.976;8.342;2022-12-07T08:33:35;4.70;99.90
2851;DHT22;1433;49.976;8.342;2022-12-07T08:36:08;4.80;99.90
2851;DHT22;1433;49.976;8.342;2022-12-07T08:38:36;4.70;99.90
2851;DHT22;1433;49.976;8.342;2022-12-07T08:41:03;4.70;99.90
2851;DHT22;1433;49.976;8.342;2022-12-07T08:43:29;4.60;99.90
2851;DHT22;1433;49.976;8.342;2022-12-07T08:49:26;4.70;99.90
2851;DHT22;1433;49.976;8.342;2022-12-07T08:51:46;4.50;99.90
2851;DHT22;1433;49.976;8.342;2022-12-07T08:54:17;4.60;99.90
2851;DHT22;1433;49.976;8.342;2022-12-07T08:56:46;4.60;99.90
2851;DHT22;1433;49.976;8.342;2022-12-07T08:59:14;4.70;99.90
2851;DHT22;1433;49.976;8.342;2022-12-07T09:01:43;4.70;99.90
2851;DHT22;1433;49.976;8.342;2022-12-07T09:04:09;4.70;99.90
2851;DHT22;1433;49.976;8.342;2022-12-07T09:06:35;4.80;99.90
2851;DHT22;1433;49.976;8.342;2022-12-07T09:09:02;4.80;99.90
2851;DHT22;1433;49.976;8.342;2022-12-07T09:11:29;4.90;99.90
2851;DHT22;1433;49.976;8.342;2022-12-07T09:13:56;4.90;99.90
2851;DHT22;1433;49.976;8.342;2022-12-07T09:16:22;4.90;99.90
2851;DHT22;1433;49.976;8.342;2022-12-07T09:18:48;5.00;99.90
2851;DHT22;1433;49.976;8.342;2022-12-07T09:21:15;5.10;99.90
2851;DHT22;1433;49.976;8.342;2022-12-07T09:23:42;5.00;99.90
2851;DHT22;1433;49.976;8.342;2022-12-07T09:26:08;5.00;99.90
2851;DHT22;1433;49.976;8.342;2022-12-07T09:28:35;5.00;99.90
2851;DHT22;1433;49.976;8.342;2022-12-07T09:31:02;4.90;99.90
2851;DHT22;1433;49.976;8.342;2022-12-07T09:33:29;4.90;99.90
2851;DHT22;1433;49.976;8.342;2022-12-07T09:35:55;4.90;99.90
2851;DHT22;1433;49.976;8.342;2022-12-07T09:38:22;4.80;99.90
2851;DHT22;1433;49.976;8.342;2022-12-07T09:40:49;4.80;99.90
2851;DHT22;1433;49.976;8.342;2022-12-07T09:43:22;4.90;99.90
2851;DHT22;1433;49.976;8.342;2022-12-07T09:45:48;5.10;99.90
2851;DHT22;1433;49.976;8.342;2022-12-07T09:48:36;5.20;99.90
2851;DHT22;1433;49.976;8.342;2022-12-07T09:51:03;5.40;99.90
2851;DHT22;1433;49.976;8.342;2022-12-07T09:53:39;5.40;99.90
2851;DHT22;1433;49.976;8.342;2022-12-07T09:56:06;5.50;99.90
2851;DHT22;1433;49.976;8.342;2022-12-07T09:58:33;5.60;99.90
2851;DHT22;1433;49.976;8.342;2022-12-07T10:01:16;5.70;99.90
2851;DHT22;1433;49.976;8.342;2022-12-07T10:03:53;5.80;99.90
2851;DHT22;1433;49.976;8.342;2022-12-07T10:06:21;6.00;99.90
2851;DHT22;1433;49.976;8.342;2022-12-07T10:08:47;6.00;99.90
2851;DHT22;1433;49.976;8.342;2022-12-07T10:11:14;6.00;99.90
2851;DHT22;1433;49.976;8.342;2022-12-07T10:13:45;5.90;99.90
2851;DHT22;1433;49.976;8.342;2022-12-07T10:19:31;5.80;99.90
2851;DHT22;1433;49.976;8.342;2022-12-07T10:24:39;5.70;99.90
2851;DHT22;1433;49.976;8.342;2022-12-07T10:27:20;5.60;99.90
2851;DHT22;1433;49.976;8.342;2022-12-07T10:29:50;5.60;99.90
2851;DHT22;1433;49.976;8.342;2022-12-07T10:38:20;5.60;99.90
2851;DHT22;1433;49.976;8.342;2022-12-07T10:40:47;5.50;99.90
2851;DHT22;1433;49.976;8.342;2022-12-07T10:43:17;5.50;99.90
2851;DHT22;1433;49.976;8.342;2022-12-07T10:46:05;5.60;99.90
2851;DHT22;1433;49.976;8.342;2022-12-07T11:00:39;6.40;99.90
2851;DHT22;1433;49.976;8.342;2022-12-07T11:03:31;6.60;99.90
2851;DHT22;1433;49.976;8.342;2022-12-07T11:06:10;6.80;99.90
2851;DHT22;1433;49.976;8.342;2022-12-07T11:11:38;6.90;99.90
2851;DHT22;1433;49.976;8.342;2022-12-07T11:14:35;6.90;99.90
2851;DHT22;1433;49.976;8.342;2022-12-07T11:17:20;6.90;99.90
2851;DHT22;1433;49.976;8.342;2022-12-07T11:25:39;6.90;99.90
2851;DHT22;1433;49.976;8.342;2022-12-07T11:28:11;6.90;99.90
2851;DHT22;1433;49.976;8.342;2022-12-07T11:42:04;7.30;99.90
2851;DHT22;1433;49.976;8.342;2022-12-07T11:47:43;7.40;1.00
2851;DHT22;1433;49.976;8.342;2022-12-07T11:50:46;7.30;1.00
2851;DHT22;1433;49.976;8.342;2022-12-07T12:01:50;7.50;1.00
2851;DHT22;1433;49.976;8.342;2022-12-07T12:06:54;7.70;1.00
2851;DHT22;1433;49.976;8.342;2022-12-07T12:09:34;7.70;1.00
2851;DHT22;1433;49.976;8.342;2022-12-07T12:18:29;7.50;71.20
2851;DHT22;1433;49.976;8.342;2022-12-07T12:21:08;7.30;99.90
2851;DHT22;1433;49.976;8.342;2022-12-07T12:23:44;7.10;93.50
2851;DHT22;1433;49.976;8.342;2022-12-07T12:26:33;6.90;99.90
2851;DHT22;1433;49.976;8.342;2022-12-07T12:29:04;6.80;99.90
2851;DHT22;1433;49.976;8.342;2022-12-07T12:31:39;6.80;99.90
2851;DHT22;1433;49.976;8.342;2022-12-07T12:34:30;7.10;99.90
2851;DHT22;1433;49.976;8.342;2022-12-07T12:36:58;7.40;99.90
2851;DHT22;1433;49.976;8.342;2022-12-07T12:39:25;7.90;99.90
2851;DHT22;1433;49.976;8.342;2022-12-07T12:41:57;8.40;1.00
2851;DHT22;1433;49.976;8.342;2022-12-07T12:47:04;9.20;1.00
2851;DHT22;1433;49.976;8.342;2022-12-07T12:57:39;9.50;1.00
2851;DHT22;1433;49.976;8.342;2022-12-07T13:00:18;8.90;99.90
2851;DHT22;1433;49.976;8.342;2022-12-07T13:02:54;8.80;99.90
2851;DHT22;1433;49.976;8.342;2022-12-07T13:05:26;9.10;99.90
2851;DHT22;1433;49.976;8.342;2022-12-07T13:08:03;9.30;1.00
2851;DHT22;1433;49.976;8.342;2022-12-07T13:10:43;9.20;95.10
2851;DHT22;1433;49.976;8.342;2022-12-07T13:18:37;8.60;99.90
2851;DHT22;1433;49.976;8.342;2022-12-07T13:21:40;8.50;1.00
2851;DHT22;1433;49.976;8.342;2022-12-07T13:29:20;8.20;1.00
2851;DHT22;1433;49.976;8.342;2022-12-07T13:31:49;8.20;99.90
2851;DHT22;1433;49.976;8.342;2022-12-07T13:34:32;8.30;1.00
2851;DHT22;1433;49.976;8.342;2022-12-07T13:37:26;8.20;99.90
2851;DHT22;1433;49.976;8.342;2022-12-07T13:39:56;8.20;99.90
2851;DHT22;1433;49.976;8.342;2022-12-07T13:42:26;8.20;1.00
2851;DHT22;1433;49.976;8.342;2022-12-07T13:44:58;8.10;99.90
2851;DHT22;1433;49.976;8.342;2022-12-07T13:50:25;7.90;1.00
2851;DHT22;1433;49.976;8.342;2022-12-07T13:52:59;8.10;1.00
2851;DHT22;1433;49.976;8.342;2022-12-07T13:55:27;8.30;81.50
2851;DHT22;1433;49.976;8.342;2022-12-07T13:57:55;8.40;1.00
2851;DHT22;1433;49.976;8.342;2022-12-07T14:00:26;8.10;99.90
2851;DHT22;1433;49.976;8.342;2022-12-07T14:03:00;7.90;99.90
2851;DHT22;1433;49.976;8.342;2022-12-07T14:05:30;7.70;1.00
2851;DHT22;1433;49.976;8.342;2022-12-07T14:08:01;7.60;99.90
2851;DHT22;1433;49.976;8.342;2022-12-07T14:10:31;7.50;1.00
2851;DHT22;1433;49.976;8.342;2022-12-07T14:16:31;7.50;1.00
2851;DHT22;1433;49.976;8.342;2022-12-07T14:19:03;7.50;1.00
2851;DHT22;1433;49.976;8.342;2022-12-07T14:21:33;7.50;1.00
2851;DHT22;1433;49.976;8.342;2022-12-07T14:24:17;7.50;1.00
2851;DHT22;1433;49.976;8.342;2022-12-07T14:26:49;7.50;1.00
2851;DHT22;1433;49.976;8.342;2022-12-07T14:32:12;7.40;1.00
2851;DHT22;1433;49.976;8.342;2022-12-07T14:34:57;7.40;43.70
2851;DHT22;1433;49.976;8.342;2022-12-07T14:37:26;7.30;99.90
2851;DHT22;1433;49.976;8.342;2022-12-07T14:39:54;7.10;99.90
2851;DHT22;1433;49.976;8.342;2022-12-07T14:42:23;6.80;99.90
2851;DHT22;1433;49.976;8.342;2022-12-07T14:44:52;6.70;99.90
2851;DHT22;1433;49.976;8.342;2022-12-07T14:47:18;6.60;99.90
2851;DHT22;1433;49.976;8.342;2022-12-07T14:49:44;6.60;99.90
2851;DHT22;1433;49.976;8.342;2022-12-07T14:52:14;6.60;99.90
2851;DHT22;1433;49.976;8.342;2022-12-07T14:54:42;6.60;99.90
2851;DHT22;1433;49.976;8.342;2022-12-07T14:57:10;6.50;99.90
2851;DHT22;1433;49.976;8.342;2022-12-07T14:59:37;6.60;99.90
2851;DHT22;1433;49.976;8.342;2022-12-07T15:02:04;6.60;99.90
2851;DHT22;1433;49.976;8.342;2022-12-07T15:04:31;6.60;99.90
2851;DHT22;1433;49.976;8.342;2022-12-07T15:07:00;6.60;99.90
2851;DHT22;1433;49.976;8.342;2022-12-07T15:09:28;6.50;99.90
2851;DHT22;1433;49.976;8.342;2022-12-07T15:11:54;6.50;99.90
2851;DHT22;1433;49.976;8.342;2022-12-07T15:14:21;6.50;99.90
2851;DHT22;1433;49.976;8.342;2022-12-07T15:16:48;6.40;99.90
2851;DHT22;1433;49.976;8.342;2022-12-07T15:19:17;6.40;99.90
2851;DHT22;1433;49.976;8.342;2022-12-07T15:21:52;6.40;99.90
2851;DHT22;1433;49.976;8.342;2022-12-07T15:24:19;6.40;99.90
2851;DHT22;1433;49.976;8.342;2022-12-07T15:26:46;6.40;99.90
2851;DHT22;1433;49.976;8.342;2022-12-07T15:29:12;6.40;99.90
2851;DHT22;1433;49.976;8.342;2022-12-07T15:31:40;6.40;99.90
2851;DHT22;1433;49.976;8.342;2022-12-07T15:34:07;6.20;99.90
2851;DHT22;1433;49.976;8.342;2022-12-07T15:36:34;5.70;99.90
2851;DHT22;1433;49.976;8.342;2022-12-07T15:39:01;5.40;99.90
2851;DHT22;1433;49.976;8.342;2022-12-07T15:41:28;5.10;99.90
2851;DHT22;1433;49.976;8.342;2022-12-07T15:43:54;5.00;99.90
2851;DHT22;1433;49.976;8.342;2022-12-07T15:46:40;4.90;99.90
2851;DHT22;1433;49.976;8.342;2022-12-07T15:49:16;4.90;99.90
2851;DHT22;1433;49.976;8.342;2022-12-07T15:51:44;4.90;99.90
2851;DHT22;1433;49.976;8.342;2022-12-07T15:54:18;4.80;99.90
2851;DHT22;1433;49.976;8.342;2022-12-07T15:56:45;4.90;99.90
2851;DHT22;1433;49.976;8.342;2022-12-07T15:59:12;4.80;99.90
2851;DHT22;1433;49.976;8.342;2022-12-07T16:01:39;4.90;99.90
2851;DHT22;1433;49.976;8.342;2022-12-07T16:04:05;4.90;99.90
2851;DHT22;1433;49.976;8.342;2022-12-07T16:06:31;4.90;99.90
2851;DHT22;1433;49.976;8.342;2022-12-07T16:08:57;4.90;99.90
2851;DHT22;1433;49.976;8.342;2022-12-07T16:11:24;4.90;99.90
2851;DHT22;1433;49.976;8.342;2022-12-07T16:13:51;4.90;99.90
2851;DHT22;1433;49.976;8.342;2022-12-07T16:16:18;4.90;99.90
2851;DHT22;1433;49.976;8.342;2022-12-07T16:18:46;4.80;99.90
2851;DHT22;1433;49.976;8.342;2022-12-07T16:21:14;4.80;99.90
2851;DHT22;1433;49.976;8.342;2022-12-07T16:23:41;4.70;99.90
2851;DHT22;1433;49.976;8.342;2022-12-07T16:28:43;4.70;99.90
2851;DHT22;1433;49.976;8.342;2022-12-07T16:31:14;4.70;99.90
2851;DHT22;1433;49.976;8.342;2022-12-07T16:33:43;4.60;99.90
2851;DHT22;1433;49.976;8.342;2022-12-07T16:36:11;4.60;99.90
2851;DHT22;1433;49.976;8.342;2022-12-07T16:38:39;4.60;99.90
2851;DHT22;1433;49.976;8.342;2022-12-07T16:41:06;4.50;99.90
2851;DHT22;1433;49.976;8.342;2022-12-07T16:43:33;4.50;99.90
2851;DHT22;1433;49.976;8.342;2022-12-07T16:46:00;4.50;99.90
2851;DHT22;1433;49.976;8.342;2022-12-07T16:48:27;4.50;99.90
2851;DHT22;1433;49.976;8.342;2022-12-07T16:50:54;4.40;99.90
2851;DHT22;1433;49.976;8.342;2022-12-07T16:53:21;4.50;99.90
2851;DHT22;1433;49.976;8.342;2022-12-07T16:55:48;4.50;99.90
2851;DHT22;1433;49.976;8.342;2022-12-07T16:58:16;4.50;99.90
2851;DHT22;1433;49.976;8.342;2022-12-07T17:00:45;4.50;99.90
2851;DHT22;1433;49.976;8.342;2022-12-07T17:03:12;4.60;99.90
2851;DHT22;1433;49.976;8.342;2022-12-07T17:05:40;4.50;99.90
2851;DHT22;1433;49.976;8.342;2022-12-07T17:08:09;4.60;99.90
2851;DHT22;1433;49.976;8.342;2022-12-07T17:10:39;4.60;99.90
2851;DHT22;1433;49.976;8.342;2022-12-07T17:13:08;4.60;99.90
2851;DHT22;1433;49.976;8.342;2022-12-07T17:16:08;4.60;99.90
2851;DHT22;1433;49.976;8.342;2022-12-07T17:18:35;4.60;99.90
2851;DHT22;1433;49.976;8.342;2022-12-07T17:21:06;4.70;99.90
2851;DHT22;1433;49.976;8.342;2022-12-07T17:23:35;4.70;99.90
2851;DHT22;1433;49.976;8.342;2022-12-07T17:26:14;4.70;99.90
2851;DHT22;1433;49.976;8.342;2022-12-07T17:28:40;4.70;99.90
2851;DHT22;1433;49.976;8.342;2022-12-07T17:31:09;4.70;99.90
2851;DHT22;1433;49.976;8.342;2022-12-07T17:33:37;4.60;99.90
2851;DHT22;1433;49.976;8.342;2022-12-07T17:36:16;4.60;99.90
2851;DHT22;1433;49.976;8.342;2022-12-07T17:38:49;4.70;99.90
2851;DHT22;1433;49.976;8.342;2022-12-07T17:41:19;4.70;99.90
2851;DHT22;1433;49.976;8.342;2022-12-07T17:44:09;4.70;99.90
2851;DHT22;1433;49.976;8.342;2022-12-07T17:46:37;4.70;99.90
2851;DHT22;1433;49.976;8.342;2022-12-07T17:49:05;4.70;99.90
2851;DHT22;1433;49.976;8.342;2022-12-07T17:51:40;4.70;99.90
2851;DHT22;1433;49.976;8.342;2022-12-07T17:54:33;4.80;99.90
2851;DHT22;1433;49.976;8.342;2022-12-07T17:57:00;4.70;99.90
2851;DHT22;1433;49.976;8.342;2022-12-07T17:59:26;4.70;99.90
2851;DHT22;1433;49.976;8.342;2022-12-07T18:01:53;4.80;99.90
2851;DHT22;1433;49.976;8.342;2022-12-07T18:04:19;4.80;99.90
2851;DHT22;1433;49.976;8.342;2022-12-07T18:06:46;4.80;99.90
2851;DHT22;1433;49.976;8.342;2022-12-07T18:09:12;4.80;99.90
2851;DHT22;1433;49.976;8.342;2022-12-07T18:11:38;4.80;99.90
2851;DHT22;1433;49.976;8.342;2022-12-07T18:14:05;4.80;99.90
2851;DHT22;1433;49.976;8.342;2022-12-07T18:16:32;4.80;99.90
2851;DHT22;1433;49.976;8.342;2022-12-07T18:19:02;4.90;99.90
2851;DHT22;1433;49.976;8.342;2022-12-07T18:21:30;4.90;99.90
2851;DHT22;1433;49.976;8.342;2022-12-07T18:23:59;4.90;99.90
2851;DHT22;1433;49.976;8.342;2022-12-07T18:26:28;4.80;99.90
2851;DHT22;1433;49.976;8.342;2022-12-07T18:28:59;4.80;99.90
2851;DHT22;1433;49.976;8.342;2022-12-07T18:31:27;4.80;99.90
2851;DHT22;1433;49.976;8.342;2022-12-07T18:33:54;4.80;99.90
2851;DHT22;1433;49.976;8.342;2022-12-07T18:36:22;4.70;99.90
2851;DHT22;1433;49.976;8.342;2022-12-07T18:38:49;4.80;99.90
2851;DHT22;1433;49.976;8.342;2022-12-07T18:41:16;4.80;99.90
2851;DHT22;1433;49.976;8.342;2022-12-07T18:43:42;4.80;99.90
2851;DHT22;1433;49.976;8.342;2022-12-07T18:46:14;4.80;99.90
2851;DHT22;1433;49.976;8.342;2022-12-07T18:48:42;4.80;99.90
2851;DHT22;1433;49.976;8.342;2022-12-07T18:51:11;4.80;99.90
2851;DHT22;1433;49.976;8.342;2022-12-07T18:53:38;4.80;99.90
2851;DHT22;1433;49.976;8.342;2022-12-07T18:58:49;4.80;99.90
2851;DHT22;1433;49.976;8.342;2022-12-07T19:01:35;4.80;99.90